sensor_id;sensor_type;location;lat;lon;timestamp;P1;durP1;ratioP1;P2;durP2;ratioP2
54247;SDS011;40161;39.768;2.722;2024-03-08T00:00:19;13.50;;;2.50;;
54247;SDS011;40161;39.768;2.722;2024-03-08T00:02:45;12.43;;;2.53;;
54247;SDS011;40161;39.768;2.722;2024-03-08T00:05:11;8.95;;;2.38;;
54247;SDS011;40161;39.768;2.722;2024-03-08T00:07:38;11.32;;;2.05;;
54247;SDS011;40161;39.768;2.722;2024-03-08T00:10:05;9.13;;;1.80;;
54247;SDS011;40161;39.768;2.722;2024-03-08T00:12:36;11.27;;;2.20;;
54247;SDS011;40161;39.768;2.722;2024-03-08T00:15:07;12.30;;;2.83;;
54247;SDS011;40161;39.768;2.722;2024-03-08T00:17:34;11.60;;;1.90;;
54247;SDS011;40161;39.768;2.722;2024-03-08T00:20:00;13.35;;;1.98;;
54247;SDS011;40161;39.768;2.722;2024-03-08T00:22:25;10.52;;;2.33;;
54247;SDS011;40161;39.768;2.722;2024-03-08T00:24:51;12.65;;;2.25;;
54247;SDS011;40161;39.768;2.722;2024-03-08T00:27:17;17.33;;;2.53;;
54247;SDS011;40161;39.768;2.722;2024-03-08T00:29:45;13.63;;;2.60;;
54247;SDS011;40161;39.768;2.722;2024-03-08T00:32:12;9.73;;;1.98;;
54247;SDS011;40161;39.768;2.722;2024-03-08T00:34:38;12.90;;;2.13;;
54247;SDS011;40161;39.768;2.722;2024-03-08T00:37:03;11.48;;;2.40;;
54247;SDS011;40161;39.768;2.722;2024-03-08T00:39:29;14.85;;;2.80;;
54247;SDS011;40161;39.768;2.722;2024-03-08T00:41:55;9.85;;;2.65;;
54247;SDS011;40161;39.768;2.722;2024-03-08T00:44:21;12.02;;;2.30;;
54247;SDS011;40161;39.768;2.722;2024-03-08T00:46:46;13.23;;;2.38;;
54247;SDS011;40161;39.768;2.722;2024-03-08T00:49:12;14.32;;;2.80;;
54247;SDS011;40161;39.768;2.722;2024-03-08T00:51:38;14.95;;;2.70;;
54247;SDS011;40161;39.768;2.722;2024-03-08T00:54:04;9.05;;;2.40;;
54247;SDS011;40161;39.768;2.722;2024-03-08T00:56:29;16.50;;;2.45;;
54247;SDS011;40161;39.768;2.722;2024-03-08T00:58:55;10.50;;;2.67;;
54247;SDS011;40161;39.768;2.722;2024-03-08T01:01:20;12.57;;;2.58;;
54247;SDS011;40161;39.768;2.722;2024-03-08T01:03:46;12.38;;;2.60;;
54247;SDS011;40161;39.768;2.722;2024-03-08T01:06:13;12.02;;;2.33;;
54247;SDS011;40161;39.768;2.722;2024-03-08T01:08:39;10.75;;;2.60;;
54247;SDS011;40161;39.768;2.722;2024-03-08T01:11:07;12.75;;;2.33;;
54247;SDS011;40161;39.768;2.722;2024-03-08T01:13:34;10.98;;;2.00;;
54247;SDS011;40161;39.768;2.722;2024-03-08T01:16:00;14.27;;;2.13;;
54247;SDS011;40161;39.768;2.722;2024-03-08T01:18:25;13.00;;;2.63;;
54247;SDS011;40161;39.768;2.722;2024-03-08T01:20:51;12.70;;;2.50;;
54247;SDS011;40161;39.768;2.722;2024-03-08T01:23:17;11.20;;;2.25;;
54247;SDS011;40161;39.768;2.722;2024-03-08T01:25:43;12.27;;;2.50;;
54247;SDS011;40161;39.768;2.722;2024-03-08T01:28:09;11.95;;;2.00;;
54247;SDS011;40161;39.768;2.722;2024-03-08T01:30:35;13.68;;;2.47;;
54247;SDS011;40161;39.768;2.722;2024-03-08T01:33:02;14.35;;;2.47;;
54247;SDS011;40161;39.768;2.722;2024-03-08T01:35:28;12.27;;;2.38;;
54247;SDS011;40161;39.768;2.722;2024-03-08T01:37:54;12.18;;;2.33;;
54247;SDS011;40161;39.768;2.722;2024-03-08T01:40:20;11.68;;;2.72;;
54247;SDS011;40161;39.768;2.722;2024-03-08T01:42:45;12.43;;;2.33;;
54247;SDS011;40161;39.768;2.722;2024-03-08T01:45:13;12.18;;;2.30;;
54247;SDS011;40161;39.768;2.722;2024-03-08T01:47:39;12.10;;;2.72;;
54247;SDS011;40161;39.768;2.722;2024-03-08T01:50:05;14.18;;;2.45;;
54247;SDS011;40161;39.768;2.722;2024-03-08T01:52:34;11.52;;;2.15;;
54247;SDS011;40161;39.768;2.722;2024-03-08T01:55:01;19.70;;;2.75;;
54247;SDS011;40161;39.768;2.722;2024-03-08T01:57:29;16.13;;;2.75;;
54247;SDS011;40161;39.768;2.722;2024-03-08T01:59:56;11.70;;;1.95;;
54247;SDS011;40161;39.768;2.722;2024-03-08T02:02:22;11.93;;;2.65;;
54247;SDS011;40161;39.768;2.722;2024-03-08T02:04:48;21.75;;;2.80;;
54247;SDS011;40161;39.768;2.722;2024-03-08T02:07:18;10.10;;;2.28;;
54247;SDS011;40161;39.768;2.722;2024-03-08T02:09:43;10.60;;;2.88;;
54247;SDS011;40161;39.768;2.722;2024-03-08T02:12:09;16.60;;;3.20;;
54247;SDS011;40161;39.768;2.722;2024-03-08T02:14:35;14.85;;;2.85;;
54247;SDS011;40161;39.768;2.722;2024-03-08T02:17:01;8.88;;;2.40;;
54247;SDS011;40161;39.768;2.722;2024-03-08T02:19:28;11.68;;;2.40;;
54247;SDS011;40161;39.768;2.722;2024-03-08T02:21:53;10.35;;;2.65;;
54247;SDS011;40161;39.768;2.722;2024-03-08T02:24:20;16.00;;;2.50;;
54247;SDS011;40161;39.768;2.722;2024-03-08T02:26:46;11.38;;;2.42;;
54247;SDS011;40161;39.768;2.722;2024-03-08T02:29:12;12.73;;;2.53;;
54247;SDS011;40161;39.768;2.722;2024-03-08T02:31:38;11.13;;;2.60;;
54247;SDS011;40161;39.768;2.722;2024-03-08T02:34:04;8.15;;;2.20;;
54247;SDS011;40161;39.768;2.722;2024-03-08T02:36:30;8.73;;;2.15;;
54247;SDS011;40161;39.768;2.722;2024-03-08T02:39:00;12.48;;;2.13;;
54247;SDS011;40161;39.768;2.722;2024-03-08T02:41:27;11.13;;;2.28;;
54247;SDS011;40161;39.768;2.722;2024-03-08T02:43:53;9.38;;;2.22;;
54247;SDS011;40161;39.768;2.722;2024-03-08T02:46:20;7.90;;;2.20;;
54247;SDS011;40161;39.768;2.722;2024-03-08T02:48:46;9.07;;;1.92;;
54247;SDS011;40161;39.768;2.722;2024-03-08T02:51:12;9.13;;;1.83;;
54247;SDS011;40161;39.768;2.722;2024-03-08T02:53:38;9.35;;;2.22;;
54247;SDS011;40161;39.768;2.722;2024-03-08T02:56:04;11.77;;;2.20;;
54247;SDS011;40161;39.768;2.722;2024-03-08T02:58:34;14.35;;;2.28;;
54247;SDS011;40161;39.768;2.722;2024-03-08T03:00:59;12.73;;;2.10;;
54247;SDS011;40161;39.768;2.722;2024-03-08T03:03:25;11.77;;;2.05;;
54247;SDS011;40161;39.768;2.722;2024-03-08T03:05:52;10.00;;;1.98;;
54247;SDS011;40161;39.768;2.722;2024-03-08T03:08:20;7.70;;;2.15;;
54247;SDS011;40161;39.768;2.722;2024-03-08T03:10:46;8.02;;;2.03;;
54247;SDS011;40161;39.768;2.722;2024-03-08T03:13:12;8.38;;;2.10;;
54247;SDS011;40161;39.768;2.722;2024-03-08T03:15:39;7.00;;;1.70;;
54247;SDS011;40161;39.768;2.722;2024-03-08T03:18:07;7.57;;;1.85;;
54247;SDS011;40161;39.768;2.722;2024-03-08T03:20:33;6.32;;;2.10;;
54247;SDS011;40161;39.768;2.722;2024-03-08T03:23:05;7.47;;;2.10;;
54247;SDS011;40161;39.768;2.722;2024-03-08T03:25:33;8.18;;;1.83;;
54247;SDS011;40161;39.768;2.722;2024-03-08T03:28:00;12.82;;;2.03;;
54247;SDS011;40161;39.768;2.722;2024-03-08T03:30:27;11.20;;;2.45;;
54247;SDS011;40161;39.768;2.722;2024-03-08T03:32:58;9.57;;;2.10;;
54247;SDS011;40161;39.768;2.722;2024-03-08T03:35:26;13.70;;;2.53;;
54247;SDS011;40161;39.768;2.722;2024-03-08T03:37:52;10.75;;;2.17;;
54247;SDS011;40161;39.768;2.722;2024-03-08T03:40:31;15.82;;;2.70;;
54247;SDS011;40161;39.768;2.722;2024-03-08T03:42:59;15.38;;;3.03;;
54247;SDS011;40161;39.768;2.722;2024-03-08T03:45:25;14.07;;;2.45;;
54247;SDS011;40161;39.768;2.722;2024-03-08T03:47:51;11.48;;;2.05;;
54247;SDS011;40161;39.768;2.722;2024-03-08T03:50:20;9.30;;;2.70;;
54247;SDS011;40161;39.768;2.722;2024-03-08T03:52:47;12.88;;;2.47;;
54247;SDS011;40161;39.768;2.722;2024-03-08T03:55:13;9.68;;;2.30;;
54247;SDS011;40161;39.768;2.722;2024-03-08T03:57:40;11.35;;;2.30;;
54247;SDS011;40161;39.768;2.722;2024-03-08T04:00:06;8.30;;;2.13;;
54247;SDS011;40161;39.768;2.722;2024-03-08T04:02:37;9.77;;;1.92;;
54247;SDS011;40161;39.768;2.722;2024-03-08T04:05:04;7.57;;;1.98;;
54247;SDS011;40161;39.768;2.722;2024-03-08T04:07:31;10.32;;;2.20;;
54247;SDS011;40161;39.768;2.722;2024-03-08T04:09:57;6.15;;;1.50;;
54247;SDS011;40161;39.768;2.722;2024-03-08T04:12:23;11.55;;;2.08;;
54247;SDS011;40161;39.768;2.722;2024-03-08T04:14:49;10.18;;;2.10;;
54247;SDS011;40161;39.768;2.722;2024-03-08T04:17:14;6.05;;;1.50;;
54247;SDS011;40161;39.768;2.722;2024-03-08T04:19:40;6.60;;;2.05;;
54247;SDS011;40161;39.768;2.722;2024-03-08T04:22:06;9.00;;;1.88;;
54247;SDS011;40161;39.768;2.722;2024-03-08T04:24:32;6.28;;;1.67;;
54247;SDS011;40161;39.768;2.722;2024-03-08T04:26:58;4.90;;;1.40;;
54247;SDS011;40161;39.768;2.722;2024-03-08T04:29:24;3.55;;;1.63;;
54247;SDS011;40161;39.768;2.722;2024-03-08T04:31:50;7.60;;;1.60;;
54247;SDS011;40161;39.768;2.722;2024-03-08T04:34:19;4.93;;;1.63;;
54247;SDS011;40161;39.768;2.722;2024-03-08T04:36:47;7.15;;;1.60;;
54247;SDS011;40161;39.768;2.722;2024-03-08T04:39:13;7.85;;;1.90;;
54247;SDS011;40161;39.768;2.722;2024-03-08T04:41:40;5.82;;;1.45;;
54247;SDS011;40161;39.768;2.722;2024-03-08T04:44:09;3.15;;;1.13;;
54247;SDS011;40161;39.768;2.722;2024-03-08T04:46:35;3.83;;;0.90;;
54247;SDS011;40161;39.768;2.722;2024-03-08T04:49:01;2.08;;;0.85;;
54247;SDS011;40161;39.768;2.722;2024-03-08T04:51:27;4.50;;;1.27;;
54247;SDS011;40161;39.768;2.722;2024-03-08T04:53:53;5.32;;;1.10;;
54247;SDS011;40161;39.768;2.722;2024-03-08T04:56:18;2.53;;;1.08;;
54247;SDS011;40161;39.768;2.722;2024-03-08T04:58:44;2.05;;;0.95;;
54247;SDS011;40161;39.768;2.722;2024-03-08T05:01:13;3.60;;;0.80;;
54247;SDS011;40161;39.768;2.722;2024-03-08T05:03:39;4.28;;;1.10;;
54247;SDS011;40161;39.768;2.722;2024-03-08T05:06:04;3.55;;;1.10;;
54247;SDS011;40161;39.768;2.722;2024-03-08T05:08:30;5.63;;;1.20;;
54247;SDS011;40161;39.768;2.722;2024-03-08T05:10:56;3.92;;;1.20;;
54247;SDS011;40161;39.768;2.722;2024-03-08T05:13:22;4.13;;;0.90;;
54247;SDS011;40161;39.768;2.722;2024-03-08T05:15:51;4.07;;;1.15;;
54247;SDS011;40161;39.768;2.722;2024-03-08T05:18:17;3.20;;;1.10;;
54247;SDS011;40161;39.768;2.722;2024-03-08T05:20:42;2.72;;;1.20;;
54247;SDS011;40161;39.768;2.722;2024-03-08T05:23:08;2.88;;;1.10;;
54247;SDS011;40161;39.768;2.722;2024-03-08T05:25:34;3.90;;;1.40;;
54247;SDS011;40161;39.768;2.722;2024-03-08T05:28:00;2.25;;;1.10;;
54247;SDS011;40161;39.768;2.722;2024-03-08T05:30:25;4.70;;;1.73;;
54247;SDS011;40161;39.768;2.722;2024-03-08T05:32:51;3.40;;;0.90;;
54247;SDS011;40161;39.768;2.722;2024-03-08T05:35:16;5.10;;;1.30;;
54247;SDS011;40161;39.768;2.722;2024-03-08T05:37:42;4.28;;;1.25;;
54247;SDS011;40161;39.768;2.722;2024-03-08T05:40:08;4.32;;;1.30;;
54247;SDS011;40161;39.768;2.722;2024-03-08T05:42:35;3.13;;;0.90;;
54247;SDS011;40161;39.768;2.722;2024-03-08T05:45:04;2.78;;;1.00;;
54247;SDS011;40161;39.768;2.722;2024-03-08T05:47:31;3.20;;;1.25;;
54247;SDS011;40161;39.768;2.722;2024-03-08T05:49:58;3.10;;;1.05;;
54247;SDS011;40161;39.768;2.722;2024-03-08T05:52:24;3.83;;;1.10;;
54247;SDS011;40161;39.768;2.722;2024-03-08T05:54:51;4.15;;;1.30;;
54247;SDS011;40161;39.768;2.722;2024-03-08T05:57:17;4.05;;;1.20;;
54247;SDS011;40161;39.768;2.722;2024-03-08T05:59:43;4.80;;;1.30;;
54247;SDS011;40161;39.768;2.722;2024-03-08T06:02:08;4.38;;;1.25;;
54247;SDS011;40161;39.768;2.722;2024-03-08T06:04:34;3.30;;;1.10;;
54247;SDS011;40161;39.768;2.722;2024-03-08T06:06:59;2.55;;;1.08;;
54247;SDS011;40161;39.768;2.722;2024-03-08T06:09:25;3.53;;;1.38;;
54247;SDS011;40161;39.768;2.722;2024-03-08T06:11:51;4.53;;;1.27;;
54247;SDS011;40161;39.768;2.722;2024-03-08T06:14:19;3.40;;;1.40;;
54247;SDS011;40161;39.768;2.722;2024-03-08T06:16:45;6.15;;;1.42;;
54247;SDS011;40161;39.768;2.722;2024-03-08T06:19:11;6.75;;;1.30;;
54247;SDS011;40161;39.768;2.722;2024-03-08T06:21:38;7.07;;;1.67;;
54247;SDS011;40161;39.768;2.722;2024-03-08T06:24:03;9.57;;;1.80;;
54247;SDS011;40161;39.768;2.722;2024-03-08T06:26:29;7.35;;;2.22;;
54247;SDS011;40161;39.768;2.722;2024-03-08T06:28:55;10.23;;;3.30;;
54247;SDS011;40161;39.768;2.722;2024-03-08T06:31:21;8.95;;;1.80;;
54247;SDS011;40161;39.768;2.722;2024-03-08T06:33:47;9.15;;;2.80;;
54247;SDS011;40161;39.768;2.722;2024-03-08T06:36:16;7.70;;;1.80;;
54247;SDS011;40161;39.768;2.722;2024-03-08T06:38:47;7.32;;;1.85;;
54247;SDS011;40161;39.768;2.722;2024-03-08T06:41:13;4.85;;;1.63;;
54247;SDS011;40161;39.768;2.722;2024-03-08T06:43:45;5.10;;;1.30;;
54247;SDS011;40161;39.768;2.722;2024-03-08T06:46:14;6.85;;;1.90;;
54247;SDS011;40161;39.768;2.722;2024-03-08T06:48:40;6.22;;;2.00;;
54247;SDS011;40161;39.768;2.722;2024-03-08T06:51:06;6.63;;;1.77;;
54247;SDS011;40161;39.768;2.722;2024-03-08T06:53:32;7.18;;;1.90;;
54247;SDS011;40161;39.768;2.722;2024-03-08T06:56:00;4.55;;;2.00;;
54247;SDS011;40161;39.768;2.722;2024-03-08T06:58:27;7.70;;;2.33;;
54247;SDS011;40161;39.768;2.722;2024-03-08T07:00:53;8.57;;;1.90;;
54247;SDS011;40161;39.768;2.722;2024-03-08T07:03:19;5.93;;;1.70;;
54247;SDS011;40161;39.768;2.722;2024-03-08T07:05:47;12.80;;;5.40;;
54247;SDS011;40161;39.768;2.722;2024-03-08T07:08:13;9.05;;;2.33;;
54247;SDS011;40161;39.768;2.722;2024-03-08T07:10:39;7.32;;;2.03;;
54247;SDS011;40161;39.768;2.722;2024-03-08T07:13:07;6.40;;;1.77;;
54247;SDS011;40161;39.768;2.722;2024-03-08T07:15:33;6.90;;;1.65;;
54247;SDS011;40161;39.768;2.722;2024-03-08T07:17:58;6.97;;;1.98;;
54247;SDS011;40161;39.768;2.722;2024-03-08T07:20:25;6.13;;;1.75;;
54247;SDS011;40161;39.768;2.722;2024-03-08T07:22:50;7.30;;;2.35;;
54247;SDS011;40161;39.768;2.722;2024-03-08T07:25:16;6.28;;;1.98;;
54247;SDS011;40161;39.768;2.722;2024-03-08T07:27:54;9.65;;;4.25;;
54247;SDS011;40161;39.768;2.722;2024-03-08T07:30:24;8.60;;;2.95;;
54247;SDS011;40161;39.768;2.722;2024-03-08T07:33:09;8.23;;;1.80;;
54247;SDS011;40161;39.768;2.722;2024-03-08T07:35:38;5.75;;;1.80;;
54247;SDS011;40161;39.768;2.722;2024-03-08T07:38:05;7.40;;;2.03;;
54247;SDS011;40161;39.768;2.722;2024-03-08T07:40:35;3.58;;;1.25;;
54247;SDS011;40161;39.768;2.722;2024-03-08T07:43:03;2.65;;;0.90;;
54247;SDS011;40161;39.768;2.722;2024-03-08T07:45:29;3.95;;;0.90;;
54247;SDS011;40161;39.768;2.722;2024-03-08T07:47:55;4.45;;;1.00;;
54247;SDS011;40161;39.768;2.722;2024-03-08T07:50:21;2.00;;;0.80;;
54247;SDS011;40161;39.768;2.722;2024-03-08T07:52:47;2.67;;;1.10;;
54247;SDS011;40161;39.768;2.722;2024-03-08T07:55:13;3.00;;;0.85;;
54247;SDS011;40161;39.768;2.722;2024-03-08T07:57:40;3.58;;;0.95;;
54247;SDS011;40161;39.768;2.722;2024-03-08T08:00:05;7.05;;;2.20;;
54247;SDS011;40161;39.768;2.722;2024-03-08T08:02:36;2.60;;;1.25;;
54247;SDS011;40161;39.768;2.722;2024-03-08T08:05:01;6.13;;;3.63;;
54247;SDS011;40161;39.768;2.722;2024-03-08T08:07:28;4.88;;;1.92;;
54247;SDS011;40161;39.768;2.722;2024-03-08T08:09:54;3.25;;;1.50;;
54247;SDS011;40161;39.768;2.722;2024-03-08T08:12:20;3.90;;;2.28;;
54247;SDS011;40161;39.768;2.722;2024-03-08T08:14:46;3.40;;;2.08;;
54247;SDS011;40161;39.768;2.722;2024-03-08T08:17:12;5.38;;;3.97;;
54247;SDS011;40161;39.768;2.722;2024-03-08T08:19:37;5.10;;;2.47;;
54247;SDS011;40161;39.768;2.722;2024-03-08T08:22:05;4.93;;;2.20;;
54247;SDS011;40161;39.768;2.722;2024-03-08T08:24:34;4.10;;;1.85;;
54247;SDS011;40161;39.768;2.722;2024-03-08T08:27:01;3.17;;;1.48;;
54247;SDS011;40161;39.768;2.722;2024-03-08T08:29:27;5.35;;;4.28;;
54247;SDS011;40161;39.768;2.722;2024-03-08T08:31:53;2.92;;;1.27;;
54247;SDS011;40161;39.768;2.722;2024-03-08T08:34:19;2.08;;;1.10;;
54247;SDS011;40161;39.768;2.722;2024-03-08T08:36:47;3.60;;;1.30;;
54247;SDS011;40161;39.768;2.722;2024-03-08T08:39:12;2.40;;;1.15;;
54247;SDS011;40161;39.768;2.722;2024-03-08T08:41:39;2.58;;;1.30;;
54247;SDS011;40161;39.768;2.722;2024-03-08T08:44:06;3.22;;;1.02;;
54247;SDS011;40161;39.768;2.722;2024-03-08T08:46:35;2.72;;;1.15;;
54247;SDS011;40161;39.768;2.722;2024-03-08T08:49:03;4.15;;;0.90;;
54247;SDS011;40161;39.768;2.722;2024-03-08T08:51:29;3.92;;;1.17;;
54247;SDS011;40161;39.768;2.722;2024-03-08T08:53:56;7.22;;;2.28;;
54247;SDS011;40161;39.768;2.722;2024-03-08T08:56:21;4.50;;;1.33;;
54247;SDS011;40161;39.768;2.722;2024-03-08T08:58:47;3.05;;;1.15;;
54247;SDS011;40161;39.768;2.722;2024-03-08T09:01:14;3.03;;;1.20;;
54247;SDS011;40161;39.768;2.722;2024-03-08T09:03:40;2.17;;;1.30;;
54247;SDS011;40161;39.768;2.722;2024-03-08T09:06:06;6.13;;;2.67;;
54247;SDS011;40161;39.768;2.722;2024-03-08T09:08:38;5.18;;;1.70;;
54247;SDS011;40161;39.768;2.722;2024-03-08T09:11:04;4.65;;;1.45;;
54247;SDS011;40161;39.768;2.722;2024-03-08T09:13:30;6.20;;;2.28;;
54247;SDS011;40161;39.768;2.722;2024-03-08T09:15:56;4.85;;;2.20;;
54247;SDS011;40161;39.768;2.722;2024-03-08T09:18:22;3.88;;;1.40;;
54247;SDS011;40161;39.768;2.722;2024-03-08T09:20:49;3.35;;;1.10;;
54247;SDS011;40161;39.768;2.722;2024-03-08T09:23:16;6.05;;;2.25;;
54247;SDS011;40161;39.768;2.722;2024-03-08T09:25:44;6.35;;;3.13;;
54247;SDS011;40161;39.768;2.722;2024-03-08T09:28:11;7.30;;;1.95;;
54247;SDS011;40161;39.768;2.722;2024-03-08T09:30:38;5.18;;;2.30;;
54247;SDS011;40161;39.768;2.722;2024-03-08T09:33:04;5.85;;;3.00;;
54247;SDS011;40161;39.768;2.722;2024-03-08T09:35:31;6.07;;;2.88;;
54247;SDS011;40161;39.768;2.722;2024-03-08T09:37:57;7.80;;;4.38;;
54247;SDS011;40161;39.768;2.722;2024-03-08T09:40:23;8.10;;;4.68;;
54247;SDS011;40161;39.768;2.722;2024-03-08T09:42:50;5.28;;;2.00;;
54247;SDS011;40161;39.768;2.722;2024-03-08T09:45:17;2.40;;;0.88;;
54247;SDS011;40161;39.768;2.722;2024-03-08T09:47:47;4.50;;;1.33;;
54247;SDS011;40161;39.768;2.722;2024-03-08T09:50:14;3.13;;;1.10;;
54247;SDS011;40161;39.768;2.722;2024-03-08T09:52:41;3.05;;;0.82;;
54247;SDS011;40161;39.768;2.722;2024-03-08T09:55:09;4.60;;;0.90;;
54247;SDS011;40161;39.768;2.722;2024-03-08T09:57:41;7.25;;;2.00;;
54247;SDS011;40161;39.768;2.722;2024-03-08T10:00:28;4.75;;;1.65;;
54247;SDS011;40161;39.768;2.722;2024-03-08T10:02:54;5.63;;;1.85;;
54247;SDS011;40161;39.768;2.722;2024-03-08T10:05:19;3.35;;;1.10;;
54247;SDS011;40161;39.768;2.722;2024-03-08T10:07:47;5.63;;;2.88;;
54247;SDS011;40161;39.768;2.722;2024-03-08T10:10:13;3.97;;;1.08;;
54247;SDS011;40161;39.768;2.722;2024-03-08T10:12:38;2.92;;;0.73;;
54247;SDS011;40161;39.768;2.722;2024-03-08T10:15:08;3.30;;;0.80;;
54247;SDS011;40161;39.768;2.722;2024-03-08T10:17:37;2.83;;;0.80;;
54247;SDS011;40161;39.768;2.722;2024-03-08T10:20:02;2.15;;;0.68;;
54247;SDS011;40161;39.768;2.722;2024-03-08T10:22:30;4.20;;;0.70;;
54247;SDS011;40161;39.768;2.722;2024-03-08T10:24:56;2.10;;;0.60;;
54247;SDS011;40161;39.768;2.722;2024-03-08T10:27:23;2.85;;;0.75;;
54247;SDS011;40161;39.768;2.722;2024-03-08T10:29:51;2.72;;;0.80;;
54247;SDS011;40161;39.768;2.722;2024-03-08T10:32:17;2.10;;;0.80;;
54247;SDS011;40161;39.768;2.722;2024-03-08T10:34:43;2.33;;;0.57;;
54247;SDS011;40161;39.768;2.722;2024-03-08T10:37:12;1.63;;;0.65;;
54247;SDS011;40161;39.768;2.722;2024-03-08T10:39:43;4.28;;;1.00;;
54247;SDS011;40161;39.768;2.722;2024-03-08T10:44:47;3.47;;;1.55;;
54247;SDS011;40161;39.768;2.722;2024-03-08T10:47:29;4.70;;;1.48;;
54247;SDS011;40161;39.768;2.722;2024-03-08T10:50:03;2.15;;;0.70;;
54247;SDS011;40161;39.768;2.722;2024-03-08T10:52:38;1.02;;;0.50;;
54247;SDS011;40161;39.768;2.722;2024-03-08T10:55:04;1.23;;;0.57;;
54247;SDS011;40161;39.768;2.722;2024-03-08T10:57:38;4.28;;;1.13;;
54247;SDS011;40161;39.768;2.722;2024-03-08T11:00:06;1.92;;;0.90;;
54247;SDS011;40161;39.768;2.722;2024-03-08T11:02:35;2.25;;;0.70;;
54247;SDS011;40161;39.768;2.722;2024-03-08T11:05:02;2.20;;;0.70;;
54247;SDS011;40161;39.768;2.722;2024-03-08T11:07:33;1.83;;;0.60;;
54247;SDS011;40161;39.768;2.722;2024-03-08T11:10:03;1.40;;;0.60;;
54247;SDS011;40161;39.768;2.722;2024-03-08T11:12:36;3.55;;;0.70;;
54247;SDS011;40161;39.768;2.722;2024-03-08T11:15:09;1.70;;;0.93;;
54247;SDS011;40161;39.768;2.722;2024-03-08T11:20:08;3.92;;;1.65;;
54247;SDS011;40161;39.768;2.722;2024-03-08T11:22:40;3.67;;;0.90;;
54247;SDS011;40161;39.768;2.722;2024-03-08T11:25:15;2.33;;;0.80;;
54247;SDS011;40161;39.768;2.722;2024-03-08T11:28:07;2.72;;;0.85;;
54247;SDS011;40161;39.768;2.722;2024-03-08T11:33:24;3.78;;;0.90;;
54247;SDS011;40161;39.768;2.722;2024-03-08T11:36:03;3.45;;;0.98;;
54247;SDS011;40161;39.768;2.722;2024-03-08T11:38:45;2.72;;;0.60;;
54247;SDS011;40161;39.768;2.722;2024-03-08T11:41:14;2.33;;;0.90;;
54247;SDS011;40161;39.768;2.722;2024-03-08T11:43:43;7.88;;;1.10;;
54247;SDS011;40161;39.768;2.722;2024-03-08T11:46:10;4.60;;;0.70;;
54247;SDS011;40161;39.768;2.722;2024-03-08T11:48:38;2.95;;;0.80;;
54247;SDS011;40161;39.768;2.722;2024-03-08T11:51:06;2.70;;;0.70;;
54247;SDS011;40161;39.768;2.722;2024-03-08T11:53:33;3.50;;;0.60;;
54247;SDS011;40161;39.768;2.722;2024-03-08T11:56:11;3.60;;;0.70;;
54247;SDS011;40161;39.768;2.722;2024-03-08T11:58:39;2.33;;;0.80;;
54247;SDS011;40161;39.768;2.722;2024-03-08T12:01:06;3.33;;;0.70;;
54247;SDS011;40161;39.768;2.722;2024-03-08T12:03:37;2.63;;;0.70;;
54247;SDS011;40161;39.768;2.722;2024-03-08T12:06:07;2.47;;;0.60;;
54247;SDS011;40161;39.768;2.722;2024-03-08T12:08:35;2.05;;;0.80;;
54247;SDS011;40161;39.768;2.722;2024-03-08T12:11:01;1.55;;;0.70;;
54247;SDS011;40161;39.768;2.722;2024-03-08T12:13:32;1.60;;;0.68;;
54247;SDS011;40161;39.768;2.722;2024-03-08T12:15:59;3.55;;;0.70;;
54247;SDS011;40161;39.768;2.722;2024-03-08T12:18:28;1.85;;;0.50;;
54247;SDS011;40161;39.768;2.722;2024-03-08T12:21:10;4.05;;;0.50;;
54247;SDS011;40161;39.768;2.722;2024-03-08T12:23:39;3.58;;;0.60;;
54247;SDS011;40161;39.768;2.722;2024-03-08T12:29:24;1.65;;;0.70;;
54247;SDS011;40161;39.768;2.722;2024-03-08T12:31:52;2.90;;;0.70;;
54247;SDS011;40161;39.768;2.722;2024-03-08T12:34:26;2.25;;;0.50;;
54247;SDS011;40161;39.768;2.722;2024-03-08T12:36:57;1.33;;;0.70;;
54247;SDS011;40161;39.768;2.722;2024-03-08T12:39:23;6.78;;;0.93;;
54247;SDS011;40161;39.768;2.722;2024-03-08T12:41:55;1.92;;;1.08;;
54247;SDS011;40161;39.768;2.722;2024-03-08T12:44:27;2.85;;;0.70;;
54247;SDS011;40161;39.768;2.722;2024-03-08T12:46:53;2.00;;;0.95;;
54247;SDS011;40161;39.768;2.722;2024-03-08T12:49:19;4.35;;;1.10;;
54247;SDS011;40161;39.768;2.722;2024-03-08T12:51:47;4.20;;;0.88;;
54247;SDS011;40161;39.768;2.722;2024-03-08T12:54:13;2.22;;;0.80;;
54247;SDS011;40161;39.768;2.722;2024-03-08T12:56:39;3.47;;;0.75;;
54247;SDS011;40161;39.768;2.722;2024-03-08T12:59:05;6.32;;;3.00;;
54247;SDS011;40161;39.768;2.722;2024-03-08T13:01:33;4.05;;;0.80;;
54247;SDS011;40161;39.768;2.722;2024-03-08T13:04:02;5.90;;;4.05;;
54247;SDS011;40161;39.768;2.722;2024-03-08T13:06:29;7.72;;;3.55;;
54247;SDS011;40161;39.768;2.722;2024-03-08T13:08:56;2.97;;;1.08;;
54247;SDS011;40161;39.768;2.722;2024-03-08T13:11:23;2.72;;;0.88;;
54247;SDS011;40161;39.768;2.722;2024-03-08T13:13:50;14.63;;;7.50;;
54247;SDS011;40161;39.768;2.722;2024-03-08T13:16:17;12.65;;;6.82;;
54247;SDS011;40161;39.768;2.722;2024-03-08T13:18:44;5.15;;;2.13;;
54247;SDS011;40161;39.768;2.722;2024-03-08T13:21:13;6.35;;;3.25;;
54247;SDS011;40161;39.768;2.722;2024-03-08T13:23:41;8.05;;;2.55;;
54247;SDS011;40161;39.768;2.722;2024-03-08T13:26:11;8.73;;;2.97;;
54247;SDS011;40161;39.768;2.722;2024-03-08T13:28:50;13.38;;;7.15;;
54247;SDS011;40161;39.768;2.722;2024-03-08T13:31:22;7.10;;;3.13;;
54247;SDS011;40161;39.768;2.722;2024-03-08T13:33:48;7.18;;;1.48;;
54247;SDS011;40161;39.768;2.722;2024-03-08T13:36:14;3.63;;;1.48;;
54247;SDS011;40161;39.768;2.722;2024-03-08T13:38:41;5.03;;;2.10;;
54247;SDS011;40161;39.768;2.722;2024-03-08T13:41:11;4.40;;;1.40;;
54247;SDS011;40161;39.768;2.722;2024-03-08T13:43:43;5.03;;;1.70;;
54247;SDS011;40161;39.768;2.722;2024-03-08T13:46:11;5.00;;;1.63;;
54247;SDS011;40161;39.768;2.722;2024-03-08T13:48:37;7.05;;;2.72;;
54247;SDS011;40161;39.768;2.722;2024-03-08T13:51:04;2.88;;;1.02;;
54247;SDS011;40161;39.768;2.722;2024-03-08T13:53:31;2.83;;;1.00;;
54247;SDS011;40161;39.768;2.722;2024-03-08T13:55:58;2.83;;;1.00;;
54247;SDS011;40161;39.768;2.722;2024-03-08T13:58:25;3.30;;;1.00;;
54247;SDS011;40161;39.768;2.722;2024-03-08T14:00:51;4.78;;;1.63;;
54247;SDS011;40161;39.768;2.722;2024-03-08T14:03:17;2.58;;;0.90;;
54247;SDS011;40161;39.768;2.722;2024-03-08T14:05:43;10.57;;;1.70;;
54247;SDS011;40161;39.768;2.722;2024-03-08T14:08:09;2.42;;;0.77;;
54247;SDS011;40161;39.768;2.722;2024-03-08T14:10:37;2.55;;;1.00;;
54247;SDS011;40161;39.768;2.722;2024-03-08T14:13:03;3.08;;;0.90;;
54247;SDS011;40161;39.768;2.722;2024-03-08T14:15:30;4.78;;;0.80;;
54247;SDS011;40161;39.768;2.722;2024-03-08T14:17:56;1.73;;;0.68;;
54247;SDS011;40161;39.768;2.722;2024-03-08T14:20:23;1.60;;;0.50;;
54247;SDS011;40161;39.768;2.722;2024-03-08T14:22:54;2.10;;;1.10;;
54247;SDS011;40161;39.768;2.722;2024-03-08T14:25:20;3.58;;;1.02;;
54247;SDS011;40161;39.768;2.722;2024-03-08T14:27:48;3.78;;;0.90;;
54247;SDS011;40161;39.768;2.722;2024-03-08T14:30:15;4.15;;;0.85;;
54247;SDS011;40161;39.768;2.722;2024-03-08T14:32:58;3.42;;;0.70;;
54247;SDS011;40161;39.768;2.722;2024-03-08T14:35:25;2.00;;;0.90;;
54247;SDS011;40161;39.768;2.722;2024-03-08T14:37:51;3.28;;;0.70;;
54247;SDS011;40161;39.768;2.722;2024-03-08T14:40:17;2.50;;;0.80;;
54247;SDS011;40161;39.768;2.722;2024-03-08T14:42:48;2.50;;;0.73;;
54247;SDS011;40161;39.768;2.722;2024-03-08T14:45:15;2.38;;;0.73;;
54247;SDS011;40161;39.768;2.722;2024-03-08T14:47:41;3.70;;;0.70;;
54247;SDS011;40161;39.768;2.722;2024-03-08T14:50:07;3.92;;;1.10;;
54247;SDS011;40161;39.768;2.722;2024-03-08T14:52:35;4.25;;;0.85;;
54247;SDS011;40161;39.768;2.722;2024-03-08T14:55:01;2.35;;;0.60;;
54247;SDS011;40161;39.768;2.722;2024-03-08T14:57:28;2.85;;;0.90;;